Time;durP1;ratioP1;P1;durP2;ratioP2;P2;SDS_P1;SDS_P2;PMS_P1;PMS_P2;Temp;Humidity;BMP_temperature;BMP_pressure;BME280_temperature;BME280_humidity;BME280_pressure;Samples;Min_cycle;Max_cycle;Signal;HPM_P1;HPM_P2
2022/03/15 00:00:27;;;;;;;11.77;10.97;;;6.40;22.50;;;;;;4954620;28;20234;-69
2022/03/15 00:02:52;;;;;;;11.85;10.82;;;6.30;22.40;;;;;;4953210;28;20789;-69
2022/03/15 00:05:20;;;;;;;12.30;11.50;;;6.30;22.50;;;;;;4954529;28;20190;-71
2022/03/15 00:07:45;;;;;;;12.23;11.40;;;6.30;22.90;;;;;;4954236;28;20179;-69
2022/03/15 00:10:12;;;;;;;11.07;10.37;;;6.40;22.80;;;;;;4954427;29;20202;-69
2022/03/15 00:12:42;;;;;;;11.43;10.55;;;6.40;22.60;;;;;;4954485;28;20429;-69
2022/03/15 00:15:09;;;;;;;12.15;11.35;;;6.30;22.60;;;;;;4953035;29;20204;-71
2022/03/15 00:17:36;;;;;;;12.50;11.50;;;6.30;22.80;;;;;;4952726;29;20218;-69
2022/03/15 00:20:04;;;;;;;12.63;11.82;;;6.10;22.90;;;;;;4953856;28;20729;-70
2022/03/15 00:22:36;;;;;;;13.40;12.57;;;6.20;23.00;;;;;;4954357;29;20282;-69
2022/03/15 00:25:06;;;;;;;12.23;11.43;;;6.20;22.90;;;;;;4954235;28;20168;-69
2022/03/15 00:27:35;;;;;;;11.88;11.18;;;6.20;23.00;;;;;;4954433;28;20645;-68
2022/03/15 00:30:03;;;;;;;13.23;12.13;;;6.20;22.80;;;;;;4954042;29;20203;-69
2022/03/15 00:32:28;;;;;;;12.77;11.77;;;6.20;22.80;;;;;;4952693;29;20179;-69
2022/03/15 00:34:54;;;;;;;12.10;11.30;;;6.20;23.00;;;;;;4952776;29;20238;-68
2022/03/15 00:37:20;;;;;;;12.50;11.50;;;6.00;23.50;;;;;;4954218;29;20425;-68
2022/03/15 00:39:46;;;;;;;12.90;11.80;;;6.00;23.50;;;;;;4953986;28;20195;-68
2022/03/15 00:42:12;;;;;;;12.07;11.27;;;6.00;23.60;;;;;;4954333;29;20646;-70
2022/03/15 00:44:38;;;;;;;11.60;11.00;;;6.00;23.70;;;;;;4969442;28;20414;-68
2022/03/15 00:47:04;;;;;;;10.52;9.93;;;6.00;23.40;;;;;;4953573;29;20548;-69
2022/03/15 00:49:30;;;;;;;11.88;11.05;;;6.00;23.70;;;;;;4953959;28;20203;-69
2022/03/15 00:51:56;;;;;;;12.37;11.47;;;6.00;23.50;;;;;;4954106;28;20194;-70
2022/03/15 00:54:21;;;;;;;12.63;11.73;;;6.00;23.50;;;;;;4954114;29;20673;-69
2022/03/15 00:56:47;;;;;;;10.93;9.90;;;6.10;23.90;;;;;;4953505;28;20209;-69
2022/03/15 00:59:15;;;;;;;11.73;11.03;;;6.10;23.10;;;;;;4953796;28;20459;-69
2022/03/15 01:01:41;;;;;;;12.65;11.73;;;6.10;23.20;;;;;;4953685;29;20547;-69
2022/03/15 01:04:07;;;;;;;11.43;10.82;;;6.10;23.30;;;;;;4953066;29;20220;-69
2022/03/15 01:06:32;;;;;;;11.13;10.33;;;5.90;23.60;;;;;;4952607;29;20215;-68
2022/03/15 01:08:58;;;;;;;11.50;10.70;;;5.90;23.60;;;;;;4952490;28;20472;-69
2022/03/15 01:11:24;;;;;;;11.77;10.67;;;5.80;24.20;;;;;;4953716;28;20274;-69
2022/03/15 01:13:49;;;;;;;11.80;11.03;;;5.80;24.30;;;;;;4953118;29;20258;-69
2022/03/15 01:16:15;;;;;;;11.73;10.87;;;5.90;24.00;;;;;;4953404;28;20199;-68
2022/03/15 01:18:41;;;;;;;11.43;10.83;;;6.00;23.90;;;;;;4953421;29;20198;-69
2022/03/15 01:21:07;;;;;;;12.05;11.18;;;6.00;23.90;;;;;;4952352;28;20521;-69
2022/03/15 01:23:33;;;;;;;11.17;10.57;;;6.00;23.80;;;;;;4953659;28;20174;-68
2022/03/15 01:25:58;;;;;;;11.27;10.57;;;5.90;23.90;;;;;;4953607;29;20183;-71
2022/03/15 01:28:24;;;;;;;12.43;11.73;;;6.00;23.80;;;;;;4953302;29;20565;-71
2022/03/15 01:30:50;;;;;;;11.73;10.83;;;6.00;23.60;;;;;;4954693;28;20235;-72
2022/03/15 01:33:19;;;;;;;13.35;12.00;;;6.10;23.70;;;;;;4957425;28;20182;-71
2022/03/15 01:35:45;;;;;;;12.07;11.07;;;6.10;23.30;;;;;;4957555;29;20199;-70
2022/03/15 01:38:10;;;;;;;12.00;11.00;;;6.10;23.10;;;;;;4956788;28;20229;-70
2022/03/15 01:40:36;;;;;;;13.43;12.50;;;6.10;23.50;;;;;;4957176;29;20545;-70
2022/03/15 01:43:02;;;;;;;12.60;11.67;;;6.10;23.70;;;;;;4957385;29;20653;-69
2022/03/15 01:45:32;;;;;;;12.68;11.70;;;6.10;23.60;;;;;;4957022;28;20426;-70
2022/03/15 01:47:58;;;;;;;11.20;10.45;;;6.00;23.60;;;;;;4956712;28;20188;-70
2022/03/15 01:50:24;;;;;;;12.77;11.43;;;6.00;23.80;;;;;;4957121;28;20261;-70
2022/03/15 01:52:49;;;;;;;11.80;11.00;;;6.00;23.90;;;;;;4956830;28;20183;-71
2022/03/15 01:55:15;;;;;;;12.03;11.13;;;6.00;23.80;;;;;;4956921;29;20695;-71
2022/03/15 01:57:40;;;;;;;12.27;11.47;;;5.90;24.00;;;;;;4957142;29;20543;-72
2022/03/15 02:00:06;;;;;;;12.87;12.03;;;5.90;24.20;;;;;;4957316;28;20569;-70
2022/03/15 02:02:32;;;;;;;12.90;12.18;;;5.80;24.50;;;;;;4956796;28;20201;-70
2022/03/15 02:04:58;;;;;;;12.10;11.20;;;5.90;24.30;;;;;;4956772;29;20668;-71
2022/03/15 02:07:23;;;;;;;13.23;12.00;;;5.90;24.30;;;;;;4956393;29;20180;-71
2022/03/15 02:09:50;;;;;;;11.50;10.90;;;6.00;24.30;;;;;;4956908;28;20480;-71
2022/03/15 02:12:15;;;;;;;12.45;11.65;;;6.00;24.00;;;;;;4956523;29;20634;-71
2022/03/15 02:14:41;;;;;;;12.10;11.17;;;6.00;23.90;;;;;;4956394;28;20249;-73
2022/03/15 02:17:06;;;;;;;13.13;12.17;;;5.90;24.20;;;;;;4956182;28;20593;-71
2022/03/15 02:19:33;;;;;;;14.43;12.40;;;5.90;24.20;;;;;;4955456;28;20201;-71
2022/03/15 02:21:59;;;;;;;11.77;11.18;;;6.00;24.20;;;;;;4956589;28;20176;-70
2022/03/15 02:24:25;;;;;;;12.02;11.32;;;6.00;23.80;;;;;;4956362;29;20230;-70
2022/03/15 02:26:51;;;;;;;13.17;12.23;;;6.00;24.00;;;;;;4954852;28;20645;-70
2022/03/15 02:29:18;;;;;;;12.77;11.88;;;5.90;24.20;;;;;;4955934;29;20449;-70
2022/03/15 02:31:44;;;;;;;12.00;11.10;;;6.00;24.10;;;;;;4956258;28;20553;-72
2022/03/15 02:34:10;;;;;;;12.30;11.60;;;6.00;23.90;;;;;;4956785;29;20229;-70
2022/03/15 02:36:35;;;;;;;12.20;11.25;;;5.90;24.10;;;;;;4955768;28;20559;-71
2022/03/15 02:39:01;;;;;;;12.33;11.60;;;5.90;24.10;;;;;;4956068;28;20269;-71
2022/03/15 02:41:27;;;;;;;11.87;11.07;;;5.90;24.10;;;;;;4954523;28;20183;-71
2022/03/15 02:43:53;;;;;;;12.10;11.30;;;6.00;24.10;;;;;;4955911;28;20555;-71
2022/03/15 02:46:19;;;;;;;13.93;11.43;;;5.90;24.30;;;;;;4956211;28;20181;-72
2022/03/15 02:48:44;;;;;;;11.40;10.80;;;5.90;24.40;;;;;;4955766;28;20873;-71
2022/03/15 02:51:10;;;;;;;10.97;10.33;;;5.90;24.60;;;;;;4955802;29;20608;-73
2022/03/15 02:53:38;;;;;;;11.03;10.43;;;5.90;24.50;;;;;;4956037;28;20180;-71
2022/03/15 02:56:10;;;;;;;11.90;11.10;;;6.00;24.50;;;;;;4955712;28;20598;-71
2022/03/15 02:58:35;;;;;;;11.73;10.98;;;6.00;24.40;;;;;;4955418;28;20195;-72
2022/03/15 03:01:01;;;;;;;10.93;10.43;;;6.00;24.30;;;;;;4956549;29;20256;-71
2022/03/15 03:03:28;;;;;;;12.43;11.43;;;6.00;24.20;;;;;;4955560;28;20210;-71
2022/03/15 03:05:53;;;;;;;12.80;11.85;;;6.00;24.30;;;;;;4955542;29;20175;-71
2022/03/15 03:08:20;;;;;;;11.63;10.83;;;5.80;24.40;;;;;;4953920;28;20205;-71
2022/03/15 03:10:46;;;;;;;11.45;10.75;;;5.80;24.90;;;;;;4955772;29;20202;-71
2022/03/15 03:13:13;;;;;;;12.73;11.77;;;5.90;24.80;;;;;;4955417;28;20673;-71
2022/03/15 03:15:38;;;;;;;11.18;10.57;;;6.00;24.60;;;;;;4954160;28;20205;-71
2022/03/15 03:18:04;;;;;;;11.97;11.00;;;6.00;24.50;;;;;;4954991;28;20206;-72
2022/03/15 03:20:30;;;;;;;11.80;10.90;;;5.90;24.40;;;;;;4954499;29;20176;-72
2022/03/15 03:22:58;;;;;;;12.37;11.57;;;5.90;24.70;;;;;;4955323;29;20214;-71
2022/03/15 03:25:24;;;;;;;10.90;10.38;;;6.00;24.40;;;;;;4953790;28;20543;-71
2022/03/15 03:27:49;;;;;;;12.55;11.75;;;6.10;24.50;;;;;;4954799;28;20259;-71
2022/03/15 03:30:16;;;;;;;11.60;10.90;;;6.10;24.20;;;;;;4955286;29;20228;-71
2022/03/15 03:32:42;;;;;;;12.73;11.95;;;6.10;24.20;;;;;;4955059;29;20552;-70
2022/03/15 03:35:08;;;;;;;11.30;10.40;;;6.10;24.20;;;;;;4954050;29;20183;-70
2022/03/15 03:37:34;;;;;;;12.50;11.80;;;6.10;24.00;;;;;;4954863;28;20649;-70
2022/03/15 03:40:00;;;;;;;11.03;10.33;;;6.10;24.50;;;;;;4954870;29;20432;-71
2022/03/15 03:42:25;;;;;;;10.87;10.17;;;6.00;24.60;;;;;;4954829;29;20415;-71
2022/03/15 03:44:51;;;;;;;11.83;11.00;;;5.90;24.80;;;;;;4955058;28;20177;-71
2022/03/15 03:47:17;;;;;;;12.03;11.17;;;5.90;24.90;;;;;;4955314;28;20183;-70
2022/03/15 03:49:43;;;;;;;11.05;10.27;;;5.90;24.80;;;;;;4955103;29;20258;-70
2022/03/15 03:52:09;;;;;;;12.20;11.03;;;5.90;25.40;;;;;;4954896;28;20279;-70
2022/03/15 03:54:34;;;;;;;10.80;10.10;;;6.00;24.70;;;;;;4954290;28;20415;-71
2022/03/15 03:57:00;;;;;;;10.97;10.47;;;6.00;24.70;;;;;;4954226;29;20805;-71
2022/03/15 03:59:26;;;;;;;11.60;11.00;;;6.10;24.20;;;;;;4954471;28;20196;-71
2022/03/15 04:01:52;;;;;;;9.80;9.38;;;6.20;24.20;;;;;;4954487;28;20920;-71
2022/03/15 04:04:18;;;;;;;10.07;9.47;;;6.10;24.50;;;;;;4954586;28;20184;-72
2022/03/15 04:06:44;;;;;;;10.80;10.30;;;6.10;24.40;;;;;;4954207;29;20183;-70
2022/03/15 04:09:10;;;;;;;10.60;10.00;;;6.10;24.10;;;;;;4953196;28;20370;-71
2022/03/15 04:11:36;;;;;;;10.77;10.00;;;6.10;24.20;;;;;;4954712;29;20698;-70
2022/03/15 04:14:03;;;;;;;12.40;11.27;;;6.00;24.00;;;;;;4953393;29;20968;-71
2022/03/15 04:16:30;;;;;;;10.57;10.07;;;6.00;24.00;;;;;;4953949;28;20499;-71
2022/03/15 04:18:55;;;;;;;12.55;11.05;;;5.90;24.20;;;;;;4953123;29;20211;-71
2022/03/15 04:21:24;;;;;;;10.97;10.37;;;5.80;24.10;;;;;;4954488;29;20547;-71
2022/03/15 04:23:54;;;;;;;10.90;10.30;;;5.80;24.80;;;;;;4954185;29;20179;-72
2022/03/15 04:26:24;;;;;;;9.80;9.30;;;5.70;24.50;;;;;;4952835;29;20220;-71
2022/03/15 04:28:50;;;;;;;10.63;10.02;;;5.70;24.70;;;;;;4953020;29;20288;-71
2022/03/15 04:31:16;;;;;;;10.73;9.98;;;5.60;24.70;;;;;;4954685;28;20190;-70
2022/03/15 04:33:42;;;;;;;11.50;10.90;;;5.80;24.80;;;;;;4953278;29;20577;-70
2022/03/15 04:36:08;;;;;;;9.87;9.37;;;5.80;24.60;;;;;;4953864;29;20213;-70
2022/03/15 04:38:35;;;;;;;9.40;8.90;;;5.70;24.70;;;;;;4953979;29;20668;-70
2022/03/15 04:41:01;;;;;;;11.98;11.27;;;5.70;24.70;;;;;;4952667;29;20275;-72
2022/03/15 04:43:27;;;;;;;10.45;9.95;;;5.80;24.80;;;;;;4954604;29;20205;-70
2022/03/15 04:45:53;;;;;;;9.77;9.35;;;5.80;24.80;;;;;;4953040;28;20184;-70
2022/03/15 04:48:20;;;;;;;10.00;9.30;;;5.80;24.80;;;;;;4953601;28;20626;-70
2022/03/15 04:50:46;;;;;;;10.25;9.65;;;5.80;24.70;;;;;;4954901;29;20234;-71
2022/03/15 04:53:11;;;;;;;9.32;8.93;;;5.90;24.40;;;;;;4954132;28;20186;-71
2022/03/15 04:55:37;;;;;;;11.00;10.37;;;5.90;24.30;;;;;;4954159;29;20206;-71
2022/03/15 04:58:03;;;;;;;12.20;11.30;;;6.00;24.20;;;;;;4953572;29;20195;-70
2022/03/15 05:00:41;;;;;;;9.63;9.23;;;6.00;24.00;;;;;;5069319;28;20981;-71
2022/03/15 05:03:07;;;;;;;10.40;9.90;;;5.90;24.00;;;;;;5068182;28;20178;-71
2022/03/15 05:05:32;;;;;;;11.27;10.57;;;5.90;24.20;;;;;;5068038;28;20187;-71
2022/03/15 05:07:58;;;;;;;10.20;9.60;;;6.00;25.00;;;;;;5068924;28;20171;-71
2022/03/15 05:13:08;;;;;;;9.38;8.90;;;6.10;24.30;;;;;;5137822;22;20238;-72
2022/03/15 05:15:33;;;;;;;10.30;9.73;;;6.10;24.10;;;;;;5049036;28;20168;-74
2022/03/15 05:18:01;;;;;;;10.60;10.00;;;6.10;24.20;;;;;;5048732;28;20464;-72
2022/03/15 05:20:28;;;;;;;10.75;9.95;;;6.10;24.10;;;;;;5049057;28;20200;-73
2022/03/15 05:22:54;;;;;;;10.57;9.65;;;6.10;24.20;;;;;;5047530;28;20248;-72
2022/03/15 05:25:20;;;;;;;10.37;9.67;;;6.10;24.30;;;;;;5049270;28;20177;-73
2022/03/15 05:27:45;;;;;;;10.27;9.63;;;6.20;24.10;;;;;;5048577;28;20237;-72
2022/03/15 05:30:12;;;;;;;11.10;10.50;;;6.10;24.20;;;;;;5047537;28;20653;-72
2022/03/15 05:32:37;;;;;;;11.48;10.70;;;6.10;24.20;;;;;;5048660;28;20207;-72
2022/03/15 05:35:04;;;;;;;10.87;10.20;;;6.00;24.40;;;;;;5031422;28;20178;-70
2022/03/15 05:37:30;;;;;;;12.07;10.98;;;6.10;24.30;;;;;;5048813;28;20176;-68
2022/03/15 05:39:55;;;;;;;11.00;10.20;;;6.00;24.40;;;;;;5052030;28;20212;-73
2022/03/15 05:42:21;;;;;;;10.77;9.87;;;6.00;24.20;;;;;;5033354;28;20669;-69
2022/03/15 05:44:47;;;;;;;9.17;8.70;;;6.00;24.30;;;;;;5048591;28;20172;-71
2022/03/15 05:47:13;;;;;;;10.30;9.70;;;6.00;24.50;;;;;;5048115;28;20223;-70
2022/03/15 05:49:39;;;;;;;14.20;9.55;;;6.00;24.50;;;;;;5047135;28;20431;-71
2022/03/15 05:52:04;;;;;;;10.70;10.00;;;5.80;24.80;;;;;;5048239;28;20199;-72
2022/03/15 05:54:32;;;;;;;10.73;9.93;;;5.70;25.10;;;;;;5048436;28;20180;-71
2022/03/15 05:56:57;;;;;;;8.47;8.07;;;5.80;24.80;;;;;;5047982;28;20175;-70
2022/03/15 05:59:23;;;;;;;10.13;9.63;;;5.80;24.80;;;;;;5048009;28;20463;-70
2022/03/15 06:01:49;;;;;;;10.30;9.70;;;5.90;24.80;;;;;;5048178;28;20196;-71
2022/03/15 06:04:14;;;;;;;11.70;10.50;;;6.00;25.00;;;;;;5047040;28;20209;-70
2022/03/15 06:06:40;;;;;;;10.40;9.70;;;6.00;24.90;;;;;;5049894;28;20184;-71
2022/03/15 06:09:05;;;;;;;10.60;10.00;;;6.10;24.80;;;;;;5049569;28;20203;-70
2022/03/15 06:11:32;;;;;;;11.03;10.23;;;6.20;24.40;;;;;;5037626;28;20207;-71
2022/03/15 06:14:01;;;;;;;10.27;9.67;;;6.30;24.60;;;;;;5034688;28;20295;-72
2022/03/15 06:16:27;;;;;;;11.40;10.60;;;6.40;24.20;;;;;;5034062;28;20530;-72
2022/03/15 06:18:52;;;;;;;10.40;9.80;;;6.50;23.90;;;;;;5034603;28;20528;-72
2022/03/15 06:21:18;;;;;;;10.90;10.17;;;6.60;24.00;;;;;;5034836;28;20704;-72
2022/03/15 06:23:44;;;;;;;11.30;10.37;;;6.60;23.90;;;;;;5016709;28;20174;-73
2022/03/15 06:26:10;;;;;;;12.13;11.43;;;6.70;23.50;;;;;;5033172;28;20478;-70
2022/03/15 06:28:36;;;;;;;11.57;10.77;;;6.70;23.50;;;;;;5032716;28;20587;-69
2022/03/15 06:31:02;;;;;;;11.97;11.17;;;6.70;23.40;;;;;;5034143;28;20545;-70
2022/03/15 06:33:28;;;;;;;11.67;10.87;;;6.70;23.40;;;;;;5034155;28;20780;-71
2022/03/15 06:35:54;;;;;;;11.30;10.70;;;6.80;23.50;;;;;;5034227;28;20412;-71
2022/03/15 06:38:19;;;;;;;12.00;11.33;;;7.00;23.00;;;;;;5033910;28;20454;-70
2022/03/15 06:40:47;;;;;;;11.37;10.67;;;7.20;22.70;;;;;;5034236;28;20181;-70
2022/03/15 06:43:13;;;;;;;12.87;11.97;;;7.30;22.40;;;;;;5034045;28;20214;-70
2022/03/15 06:45:41;;;;;;;12.50;11.60;;;7.50;21.90;;;;;;5034161;28;20438;-70
2022/03/15 06:48:07;;;;;;;12.67;11.87;;;7.60;21.80;;;;;;5032424;28;20427;-70
2022/03/15 06:50:33;;;;;;;14.10;12.90;;;7.70;21.90;;;;;;5033897;28;20420;-69
2022/03/15 06:52:59;;;;;;;13.10;12.10;;;7.80;21.90;;;;;;5032735;28;20511;-69
2022/03/15 06:55:25;;;;;;;13.13;12.10;;;7.80;21.60;;;;;;5033856;28;20511;-70
2022/03/15 06:57:50;;;;;;;12.20;11.60;;;7.90;21.20;;;;;;5033599;28;20671;-70
2022/03/15 07:00:16;;;;;;;13.70;12.73;;;8.10;20.90;;;;;;5033764;28;20210;-70
2022/03/15 07:02:42;;;;;;;13.93;12.90;;;8.10;21.20;;;;;;5033681;28;20198;-70
2022/03/15 07:05:08;;;;;;;12.67;11.70;;;8.30;20.70;;;;;;5033748;28;20686;-70
2022/03/15 07:07:34;;;;;;;14.60;13.90;;;8.40;20.70;;;;;;5033352;28;20918;-70
2022/03/15 07:10:01;;;;;;;15.17;14.10;;;8.50;20.00;;;;;;5033583;28;20417;-70
2022/03/15 07:12:27;;;;;;;13.37;12.47;;;8.70;19.20;;;;;;5033432;28;20211;-70
2022/03/15 07:14:53;;;;;;;15.33;14.23;;;8.80;19.20;;;;;;5033481;28;20430;-71
2022/03/15 07:17:19;;;;;;;14.80;13.60;;;8.80;18.70;;;;;;5033106;28;20186;-69
2022/03/15 07:19:45;;;;;;;15.47;14.30;;;8.90;19.10;;;;;;5033320;28;20230;-71
2022/03/15 07:22:10;;;;;;;15.87;14.60;;;8.90;19.10;;;;;;5032261;28;20466;-70
2022/03/15 07:24:37;;;;;;;15.50;14.00;;;8.80;19.10;;;;;;5033378;28;20410;-70
2022/03/15 07:27:03;;;;;;;13.53;12.73;;;9.00;19.50;;;;;;5033103;28;20168;-70
2022/03/15 07:29:29;;;;;;;14.07;13.37;;;9.10;19.40;;;;;;5032088;28;20423;-71
2022/03/15 07:31:55;;;;;;;16.50;14.97;;;9.20;19.40;;;;;;5033247;28;21051;-70
2022/03/15 07:34:21;;;;;;;14.63;13.53;;;9.10;18.60;;;;;;5033341;28;20782;-70
2022/03/15 07:36:46;;;;;;;15.37;14.30;;;9.20;18.90;;;;;;5033185;28;20419;-71
2022/03/15 07:39:12;;;;;;;15.27;14.47;;;9.40;18.70;;;;;;5033428;28;20196;-69
2022/03/15 07:41:39;;;;;;;15.80;14.90;;;9.50;18.80;;;;;;5033087;28;20192;-70
2022/03/15 07:44:07;;;;;;;15.30;14.00;;;9.40;18.70;;;;;;5033137;28;20435;-71
2022/03/15 07:46:33;;;;;;;15.30;14.40;;;9.30;17.90;;;;;;5032821;28;20470;-70
2022/03/15 07:48:59;;;;;;;13.80;12.80;;;9.10;18.90;;;;;;5031565;28;20454;-69
2022/03/15 07:51:25;;;;;;;17.13;15.70;;;9.20;19.00;;;;;;5031464;28;20536;-70
2022/03/15 07:53:50;;;;;;;13.83;13.10;;;9.20;18.60;;;;;;5032762;28;20499;-69
2022/03/15 07:56:17;;;;;;;14.33;13.40;;;9.20;19.10;;;;;;5032048;28;20524;-75
2022/03/15 07:58:43;;;;;;;14.73;13.87;;;9.30;19.10;;;;;;5032391;28;20653;-74
2022/03/15 08:01:08;;;;;;;13.43;12.67;;;9.40;18.80;;;;;;5036618;28;20423;-74
2022/03/15 08:03:34;;;;;;;14.50;13.80;;;9.40;19.30;;;;;;5046903;28;20190;-74
2022/03/15 08:06:00;;;;;;;14.70;13.53;;;9.10;19.40;;;;;;5055652;28;20166;-75
2022/03/15 08:08:25;;;;;;;14.30;13.43;;;8.80;21.00;;;;;;5041685;28;20172;-75
2022/03/15 08:10:51;;;;;;;13.23;12.43;;;9.00;20.20;;;;;;5032761;28;20476;-74
2022/03/15 08:13:17;;;;;;;13.40;12.70;;;9.20;19.90;;;;;;5014081;28;20273;-74
2022/03/15 08:15:42;;;;;;;13.90;13.17;;;9.30;19.50;;;;;;5032724;28;20181;-70
2022/03/15 08:18:08;;;;;;;14.87;14.00;;;9.40;19.10;;;;;;5014353;28;20647;-71
2022/03/15 08:20:35;;;;;;;14.90;14.00;;;9.50;18.90;;;;;;5032356;28;20217;-70
2022/03/15 08:23:00;;;;;;;13.90;13.10;;;9.60;18.80;;;;;;5032055;28;20688;-71
2022/03/15 08:25:26;;;;;;;13.67;12.90;;;9.70;18.90;;;;;;5031941;28;20422;-71
2022/03/15 08:27:52;;;;;;;13.63;12.63;;;9.90;18.20;;;;;;5031965;28;20317;-70
2022/03/15 08:30:20;;;;;;;14.43;13.27;;;10.00;17.80;;;;;;5014673;28;20211;-68
2022/03/15 08:32:45;;;;;;;14.83;13.93;;;10.00;17.70;;;;;;5031716;28;20205;-68
2022/03/15 08:35:11;;;;;;;14.57;13.70;;;10.10;17.70;;;;;;5029950;28;20416;-69
2022/03/15 08:37:37;;;;;;;14.20;13.27;;;10.20;17.10;;;;;;5027023;28;20197;-68
2022/03/15 08:40:03;;;;;;;15.67;14.33;;;10.30;17.80;;;;;;5027283;28;20580;-68
2022/03/15 08:42:29;;;;;;;14.30;13.50;;;10.40;17.00;;;;;;5028176;28;20848;-68
2022/03/15 08:44:54;;;;;;;15.20;14.10;;;10.20;17.40;;;;;;5024553;28;20817;-68
2022/03/15 08:47:20;;;;;;;15.13;14.23;;;10.30;17.50;;;;;;5022903;28;20191;-69
2022/03/15 08:49:45;;;;;;;16.07;14.70;;;10.50;17.50;;;;;;5015733;28;20195;-68
2022/03/15 08:52:11;;;;;;;14.70;13.90;;;10.70;17.40;;;;;;5051495;28;20566;-72
2022/03/15 08:54:37;;;;;;;14.77;13.97;;;10.80;17.70;;;;;;5050701;28;20178;-69
2022/03/15 08:57:04;;;;;;;15.27;14.37;;;10.90;17.30;;;;;;5029638;28;20426;-69
2022/03/15 08:59:30;;;;;;;15.87;14.70;;;10.90;16.30;;;;;;5030816;28;20878;-68
2022/03/15 09:01:56;;;;;;;16.23;14.87;;;11.00;17.20;;;;;;5021827;28;20459;-70
2022/03/15 09:04:22;;;;;;;15.97;14.63;;;11.00;16.30;;;;;;5015474;28;20187;-70
2022/03/15 09:06:48;;;;;;;15.90;14.60;;;11.00;16.70;;;;;;5027502;28;20436;-70
2022/03/15 09:09:18;;;;;;;14.07;13.07;;;10.40;17.30;;;;;;5019440;28;20523;-70
2022/03/15 09:11:45;;;;;;;14.17;13.20;;;10.50;17.70;;;;;;5006230;28;20227;-68
2022/03/15 09:14:11;;;;;;;16.43;14.50;;;10.00;18.30;;;;;;5013676;28;20855;-70
2022/03/15 09:16:36;;;;;;;13.50;12.80;;;10.40;18.00;;;;;;5013042;28;20533;-70
2022/03/15 09:19:02;;;;;;;15.13;14.23;;;10.10;18.40;;;;;;5027230;28;20201;-70
2022/03/15 09:21:28;;;;;;;17.10;15.67;;;10.20;19.30;;;;;;5031057;28;20719;-71
2022/03/15 09:23:57;;;;;;;15.13;14.13;;;9.90;19.00;;;;;;5030460;28;20191;-70
2022/03/15 09:26:23;;;;;;;15.33;14.27;;;10.00;18.50;;;;;;5030737;28;20185;-71
2022/03/15 09:28:48;;;;;;;15.10;14.20;;;10.10;19.40;;;;;;5030779;28;20430;-71
2022/03/15 09:31:14;;;;;;;14.10;12.90;;;10.20;20.40;;;;;;5030750;28;20193;-71
2022/03/15 09:33:43;;;;;;;14.23;13.23;;;9.80;21.50;;;;;;5031099;28;20196;-71
2022/03/15 09:36:08;;;;;;;15.43;14.53;;;10.20;21.20;;;;;;5031349;28;20288;-72
2022/03/15 09:38:34;;;;;;;14.60;13.60;;;10.40;19.60;;;;;;5031145;28;20515;-72
2022/03/15 09:41:04;;;;;;;14.20;13.40;;;10.60;19.10;;;;;;5031566;28;20454;-70
2022/03/15 09:43:37;;;;;;;14.20;13.13;;;10.80;19.60;;;;;;5031190;28;20181;-71
2022/03/15 09:46:04;;;;;;;16.97;15.53;;;11.10;19.10;;;;;;5014899;28;20428;-69
2022/03/15 09:48:30;;;;;;;14.57;13.77;;;11.00;17.80;;;;;;5034645;28;20885;-71
2022/03/15 09:50:56;;;;;;;14.53;13.77;;;11.20;19.20;;;;;;5016896;28;20436;-71
2022/03/15 09:53:21;;;;;;;15.27;14.30;;;11.30;19.30;;;;;;5035052;28;20248;-71
2022/03/15 09:55:47;;;;;;;15.23;14.33;;;11.40;18.80;;;;;;5030252;28;20210;-71
2022/03/15 09:58:19;;;;;;;13.30;12.50;;;10.80;20.00;;;;;;5014494;28;20210;-70
2022/03/15 10:00:49;;;;;;;16.53;14.90;;;11.00;19.90;;;;;;5014979;28;20480;-72
2022/03/15 10:03:16;;;;;;;13.27;12.57;;;11.10;19.70;;;;;;5032048;28;20554;-72
2022/03/15 10:05:42;;;;;;;12.83;12.10;;;11.10;20.60;;;;;;5034923;28;20418;-73
2022/03/15 10:08:08;;;;;;;13.13;12.43;;;11.20;20.40;;;;;;5017939;28;20416;-72
2022/03/15 10:10:34;;;;;;;16.63;14.03;;;11.40;20.60;;;;;;5016475;28;20555;-71
2022/03/15 10:13:00;;;;;;;13.13;12.33;;;11.30;20.70;;;;;;5034318;28;20946;-70
2022/03/15 10:15:26;;;;;;;14.40;13.40;;;11.50;20.90;;;;;;5034369;28;20186;-71
2022/03/15 10:17:55;;;;;;;13.97;13.07;;;11.60;20.50;;;;;;5034141;28;20183;-71
2022/03/15 10:20:28;;;;;;;14.03;13.33;;;11.70;20.70;;;;;;5034460;28;20568;-71
2022/03/15 10:22:58;;;;;;;16.10;14.47;;;11.70;20.70;;;;;;5034404;28;20467;-71
2022/03/15 10:25:25;;;;;;;14.53;13.40;;;11.90;20.90;;;;;;5016459;28;20422;-71
2022/03/15 10:27:56;;;;;;;14.70;13.50;;;12.00;20.60;;;;;;5034539;28;20429;-72
2022/03/15 10:30:23;;;;;;;14.10;13.10;;;11.90;20.30;;;;;;5034256;28;20495;-71
2022/03/15 10:32:50;;;;;;;14.90;13.80;;;11.90;19.70;;;;;;5034310;28;20479;-71
2022/03/15 10:35:27;;;;;;;13.80;13.03;;;11.90;19.70;;;;;;5034373;28;20418;-71
2022/03/15 10:37:54;;;;;;;14.53;13.20;;;11.90;19.80;;;;;;5034201;28;20481;-72
2022/03/15 10:40:40;;;;;;;15.20;14.30;;;11.90;20.30;;;;;;5033864;28;20522;-73
2022/03/15 10:43:12;;;;;;;15.10;13.90;;;11.90;20.30;;;;;;5016801;28;20504;-73
2022/03/15 10:45:43;;;;;;;14.60;13.30;;;11.90;20.00;;;;;;5000611;28;20473;-73
2022/03/15 10:48:23;;;;;;;14.93;13.57;;;11.80;20.60;;;;;;5022983;28;20425;-73
2022/03/15 10:50:51;;;;;;;14.80;13.80;;;11.70;21.10;;;;;;5022616;28;20406;-73
2022/03/15 10:53:17;;;;;;;14.27;12.97;;;11.50;21.00;;;;;;5014105;28;20452;-72
2022/03/15 10:55:43;;;;;;;11.87;11.27;;;11.60;21.50;;;;;;5034332;28;20406;-73
2022/03/15 10:58:12;;;;;;;13.10;12.27;;;11.70;21.40;;;;;;5033705;28;20406;-75
2022/03/15 11:00:42;;;;;;;13.60;12.90;;;11.50;22.20;;;;;;5016308;28;20218;-73
2022/03/15 11:03:10;;;;;;;13.57;12.57;;;11.30;22.40;;;;;;5012717;28;20913;-72
2022/03/15 11:05:38;;;;;;;12.00;11.30;;;11.30;22.40;;;;;;5039374;28;20493;-73
2022/03/15 11:08:06;;;;;;;13.13;12.23;;;11.30;23.50;;;;;;5008334;28;20445;-72
2022/03/15 11:10:33;;;;;;;13.03;11.30;;;10.90;23.80;;;;;;5033854;28;20515;-72
2022/03/15 11:13:14;;;;;;;13.67;12.73;;;11.10;23.90;;;;;;5043397;22;20865;-70
2022/03/15 11:15:44;;;;;;;14.63;13.47;;;11.10;23.30;;;;;;5012358;28;20432;-70
2022/03/15 11:18:15;;;;;;;13.30;12.27;;;11.00;23.60;;;;;;5013492;28;20537;-70
2022/03/15 11:20:45;;;;;;;12.17;11.03;;;11.00;23.80;;;;;;5012558;28;21038;-70
2022/03/15 11:23:13;;;;;;;13.23;12.13;;;11.00;23.60;;;;;;5013226;28;20446;-71
2022/03/15 11:25:42;;;;;;;11.47;10.87;;;11.00;23.80;;;;;;5013689;28;20862;-71
2022/03/15 11:28:12;;;;;;;14.57;13.60;;;11.10;24.00;;;;;;5013017;28;20481;-70
2022/03/15 11:30:39;;;;;;;13.90;13.10;;;11.20;24.30;;;;;;5013196;28;20425;-71
2022/03/15 11:33:06;;;;;;;12.50;11.60;;;11.20;24.60;;;;;;5013163;28;20801;-69
2022/03/15 11:35:34;;;;;;;12.77;11.90;;;11.30;24.70;;;;;;5013112;28;20908;-71
2022/03/15 11:38:02;;;;;;;13.07;12.27;;;11.30;24.40;;;;;;5011593;28;20438;-71
2022/03/15 11:40:28;;;;;;;15.17;14.10;;;11.40;24.20;;;;;;5000027;28;20472;-72
2022/03/15 11:43:07;;;;;;;14.43;13.40;;;11.30;24.20;;;;;;5012846;28;20449;-71
2022/03/15 11:45:39;;;;;;;18.27;16.73;;;11.40;24.10;;;;;;5011997;28;20958;-71
2022/03/15 11:48:12;;;;;;;22.03;13.67;;;11.40;23.90;;;;;;5012776;28;20415;-70
2022/03/15 11:51:01;;;;;;;15.53;14.23;;;11.30;24.00;;;;;;5013206;28;20919;-70
2022/03/15 11:53:40;;;;;;;16.23;15.03;;;11.30;24.70;;;;;;5011444;28;20447;-70
2022/03/15 11:56:37;;;;;;;15.03;13.83;;;11.30;24.90;;;;;;5011559;28;20427;-71
2022/03/15 11:59:02;;;;;;;14.70;13.10;;;11.40;25.00;;;;;;5012763;28;20555;-71
2022/03/15 12:01:28;;;;;;;15.57;14.17;;;11.30;25.10;;;;;;5012433;28;20835;-70
2022/03/15 12:03:59;;;;;;;15.83;14.40;;;11.30;25.60;;;;;;5011315;28;20272;-71
2022/03/15 12:06:25;;;;;;;13.77;12.23;;;11.20;25.90;;;;;;5011113;28;20452;-69
2022/03/15 12:08:57;;;;;;;13.00;11.87;;;11.10;26.40;;;;;;5010346;28;20485;-70
2022/03/15 12:11:28;;;;;;;12.33;11.40;;;11.00;27.10;;;;;;5012366;28;20539;-69
2022/03/15 12:14:13;;;;;;;7.90;7.60;;;11.00;27.50;;;;;;5011361;28;20490;-71
2022/03/15 12:16:41;;;;;;;8.10;7.70;;;11.00;27.50;;;;;;5012183;28;20421;-71
2022/03/15 12:19:30;;;;;;;8.30;7.90;;;11.10;27.00;;;;;;5010613;28;20470;-69
2022/03/15 12:21:58;;;;;;;7.73;7.43;;;11.10;26.80;;;;;;5011039;28;20455;-69
2022/03/15 12:24:36;;;;;;;7.97;7.57;;;11.10;26.90;;;;;;5011129;28;20419;-67
2022/03/15 12:27:06;;;;;;;8.10;7.70;;;11.20;27.10;;;;;;5012318;28;20460;-67
2022/03/15 12:29:32;;;;;;;8.07;7.70;;;11.40;26.50;;;;;;5011152;28;20961;-69
2022/03/15 12:32:11;;;;;;;9.37;8.70;;;11.50;26.60;;;;;;5012432;28;20485;-69
2022/03/15 12:34:36;;;;;;;8.83;8.43;;;11.60;26.00;;;;;;5011938;28;20469;-70
2022/03/15 12:37:06;;;;;;;8.50;8.20;;;11.50;25.50;;;;;;5010372;28;20429;-70